SBOSBO BNA / KBNA
Speedbird OnlineSpeedbird Online BNA / KBNA

Nashville International Airport
07:53 0.7°C

Location Nashville, United States
Latitude: 36.1245002746582
Longitude: -86.6781997680664
Web Wikipedia
Altitude 183 Meter / 599 Feet
Distance 6,750 KM / 4,194 Miles
from London.
Time Zone UTC -6 hours (America/Chicago)
Codes IATA: BNA
ICAO: KBNA
Currency £1 equals USD 1.24
Runways
RunwayLength (m)Surface
02C2439Concrete
02L2348Concrete
02R2438Concrete
133362Asphalt
20C2439Concrete
20L2438Concrete
20R2348Concrete
313362Asphalt
Radio
TypeDescriptionFrequency
APPAPP120.6
ATISATIS135.1
CLDCLNC DEL126.05
DEPDEP118.4
GNDGND121.9
MISCANG MAINT138.1
OPSANG OPS32.29
RDORDO122.2
TWRTWR118.6
UNICUNICOM122.95
Live ATC
METAR KBNA 311253Z 35006KT 1 1/2SM BR OVC007 01/00 A3029 RMK AO2 SFC VIS 4 SLP260 T00110000
TAF KBNA 311121Z 3112/0112 35009KT 6SM -RA BR OVC006 FM311600 01007KT P6SM OVC006 FM312200 36006KT 4SM -RA BR OVC003 FM010400 36004KT 3SM -FZRA BR OVC003
Weather As Of 31 Jan 2023 07:53
Description Light intensity drizzle
Wind 11 km/h from North (360°)
Cloud Cover 100%
Precipitation Rain: none, Snow: none
Sunrise 06:48
Sunset 17:11
Lounges American Airlines Admirals Club, Main Terminal
Rotations During the last 90 days there were
73 flights from LHR
72 flights to LHR



Support Speedbird Online

© 2017-2023 Speedbird Online